sensor_id;sensor_type;location;lat;lon;timestamp;P1;durP1;ratioP1;P2;durP2;ratioP2
42066;SDS011;27734;47.028;28.820;2023-01-30T00:00:17;17.83;;;6.40;;
42066;SDS011;27734;47.028;28.820;2023-01-30T00:03:09;16.87;;;6.57;;
42066;SDS011;27734;47.028;28.820;2023-01-30T00:05:40;18.50;;;6.60;;
42066;SDS011;27734;47.028;28.820;2023-01-30T00:08:11;18.93;;;6.60;;
42066;SDS011;27734;47.028;28.820;2023-01-30T00:10:43;18.50;;;6.47;;
42066;SDS011;27734;47.028;28.820;2023-01-30T00:13:15;16.63;;;6.30;;
42066;SDS011;27734;47.028;28.820;2023-01-30T00:15:46;16.27;;;6.00;;
42066;SDS011;27734;47.028;28.820;2023-01-30T00:18:17;16.07;;;5.90;;
42066;SDS011;27734;47.028;28.820;2023-01-30T00:20:48;16.33;;;6.53;;
42066;SDS011;27734;47.028;28.820;2023-01-30T00:23:25;16.23;;;6.17;;
42066;SDS011;27734;47.028;28.820;2023-01-30T00:25:58;17.20;;;5.67;;
42066;SDS011;27734;47.028;28.820;2023-01-30T00:28:30;15.50;;;6.00;;
42066;SDS011;27734;47.028;28.820;2023-01-30T00:31:01;15.40;;;6.33;;
42066;SDS011;27734;47.028;28.820;2023-01-30T00:33:35;16.23;;;6.23;;
42066;SDS011;27734;47.028;28.820;2023-01-30T00:36:08;15.47;;;6.07;;
42066;SDS011;27734;47.028;28.820;2023-01-30T00:38:40;18.33;;;6.33;;
42066;SDS011;27734;47.028;28.820;2023-01-30T00:41:11;14.40;;;6.00;;
42066;SDS011;27734;47.028;28.820;2023-01-30T00:43:43;16.50;;;6.40;;
42066;SDS011;27734;47.028;28.820;2023-01-30T00:46:34;16.00;;;6.63;;
42066;SDS011;27734;47.028;28.820;2023-01-30T00:49:23;14.77;;;5.97;;
42066;SDS011;27734;47.028;28.820;2023-01-30T00:51:54;16.40;;;6.00;;
42066;SDS011;27734;47.028;28.820;2023-01-30T00:54:26;16.07;;;6.10;;
42066;SDS011;27734;47.028;28.820;2023-01-30T00:56:59;14.97;;;6.03;;
42066;SDS011;27734;47.028;28.820;2023-01-30T00:59:32;16.30;;;5.93;;
42066;SDS011;27734;47.028;28.820;2023-01-30T01:02:03;16.17;;;6.40;;
42066;SDS011;27734;47.028;28.820;2023-01-30T01:04:35;16.60;;;6.40;;
42066;SDS011;27734;47.028;28.820;2023-01-30T01:07:11;13.70;;;5.73;;
42066;SDS011;27734;47.028;28.820;2023-01-30T01:09:43;15.60;;;6.07;;
42066;SDS011;27734;47.028;28.820;2023-01-30T01:12:14;17.77;;;5.70;;
42066;SDS011;27734;47.028;28.820;2023-01-30T01:14:54;13.93;;;5.97;;
42066;SDS011;27734;47.028;28.820;2023-01-30T01:17:26;18.57;;;6.77;;
42066;SDS011;27734;47.028;28.820;2023-01-30T01:19:57;17.33;;;7.00;;
42066;SDS011;27734;47.028;28.820;2023-01-30T01:22:28;16.77;;;6.27;;
42066;SDS011;27734;47.028;28.820;2023-01-30T01:24:59;18.40;;;6.85;;
42066;SDS011;27734;47.028;28.820;2023-01-30T01:27:31;15.50;;;6.03;;
42066;SDS011;27734;47.028;28.820;2023-01-30T01:30:02;18.33;;;6.73;;
42066;SDS011;27734;47.028;28.820;2023-01-30T01:32:34;18.43;;;6.50;;
42066;SDS011;27734;47.028;28.820;2023-01-30T01:35:07;16.50;;;6.53;;
42066;SDS011;27734;47.028;28.820;2023-01-30T01:37:39;20.17;;;6.93;;
42066;SDS011;27734;47.028;28.820;2023-01-30T01:40:11;15.40;;;6.10;;
42066;SDS011;27734;47.028;28.820;2023-01-30T01:43:17;20.53;;;7.37;;
42066;SDS011;27734;47.028;28.820;2023-01-30T01:45:50;19.27;;;6.83;;
42066;SDS011;27734;47.028;28.820;2023-01-30T01:48:28;17.97;;;6.50;;
42066;SDS011;27734;47.028;28.820;2023-01-30T01:51:03;20.27;;;6.97;;
42066;SDS011;27734;47.028;28.820;2023-01-30T01:53:39;15.43;;;5.67;;
42066;SDS011;27734;47.028;28.820;2023-01-30T01:56:16;16.70;;;6.33;;
42066;SDS011;27734;47.028;28.820;2023-01-30T01:58:50;17.45;;;6.10;;
42066;SDS011;27734;47.028;28.820;2023-01-30T02:01:24;16.80;;;6.83;;
42066;SDS011;27734;47.028;28.820;2023-01-30T02:03:57;17.20;;;6.57;;
42066;SDS011;27734;47.028;28.820;2023-01-30T02:06:32;15.13;;;6.40;;
42066;SDS011;27734;47.028;28.820;2023-01-30T02:09:05;17.43;;;6.27;;
42066;SDS011;27734;47.028;28.820;2023-01-30T02:11:42;16.87;;;6.30;;
42066;SDS011;27734;47.028;28.820;2023-01-30T02:14:20;18.03;;;7.07;;
42066;SDS011;27734;47.028;28.820;2023-01-30T02:16:53;16.50;;;6.50;;
42066;SDS011;27734;47.028;28.820;2023-01-30T02:19:28;17.43;;;6.63;;
42066;SDS011;27734;47.028;28.820;2023-01-30T02:22:15;16.83;;;6.47;;
42066;SDS011;27734;47.028;28.820;2023-01-30T02:25:11;17.13;;;6.80;;
42066;SDS011;27734;47.028;28.820;2023-01-30T02:28:13;17.53;;;6.60;;
42066;SDS011;27734;47.028;28.820;2023-01-30T02:31:22;18.60;;;7.07;;
42066;SDS011;27734;47.028;28.820;2023-01-30T02:34:03;15.43;;;6.30;;
42066;SDS011;27734;47.028;28.820;2023-01-30T02:36:50;19.57;;;6.93;;
42066;SDS011;27734;47.028;28.820;2023-01-30T02:39:35;18.60;;;6.60;;
42066;SDS011;27734;47.028;28.820;2023-01-30T02:42:18;18.37;;;6.57;;
42066;SDS011;27734;47.028;28.820;2023-01-30T02:45:00;17.83;;;7.30;;
42066;SDS011;27734;47.028;28.820;2023-01-30T02:47:38;19.93;;;7.20;;
42066;SDS011;27734;47.028;28.820;2023-01-30T02:50:15;19.23;;;6.53;;
42066;SDS011;27734;47.028;28.820;2023-01-30T02:52:52;17.40;;;7.33;;
42066;SDS011;27734;47.028;28.820;2023-01-30T02:55:25;20.63;;;8.40;;
42066;SDS011;27734;47.028;28.820;2023-01-30T02:57:57;17.97;;;7.47;;
42066;SDS011;27734;47.028;28.820;2023-01-30T03:00:38;18.80;;;7.73;;
42066;SDS011;27734;47.028;28.820;2023-01-30T03:03:37;21.37;;;8.30;;
42066;SDS011;27734;47.028;28.820;2023-01-30T03:06:40;19.67;;;7.67;;
42066;SDS011;27734;47.028;28.820;2023-01-30T03:09:24;20.23;;;8.00;;
42066;SDS011;27734;47.028;28.820;2023-01-30T03:12:06;20.13;;;8.33;;
42066;SDS011;27734;47.028;28.820;2023-01-30T03:14:50;20.07;;;8.43;;
42066;SDS011;27734;47.028;28.820;2023-01-30T03:17:27;22.13;;;8.73;;
42066;SDS011;27734;47.028;28.820;2023-01-30T03:20:06;22.10;;;8.60;;
42066;SDS011;27734;47.028;28.820;2023-01-30T03:22:45;20.97;;;9.00;;
42066;SDS011;27734;47.028;28.820;2023-01-30T03:25:18;22.77;;;8.93;;
42066;SDS011;27734;47.028;28.820;2023-01-30T03:27:54;22.17;;;9.00;;
42066;SDS011;27734;47.028;28.820;2023-01-30T03:30:27;23.17;;;10.10;;
42066;SDS011;27734;47.028;28.820;2023-01-30T03:33:06;21.85;;;9.35;;
42066;SDS011;27734;47.028;28.820;2023-01-30T03:35:38;23.87;;;9.67;;
42066;SDS011;27734;47.028;28.820;2023-01-30T03:38:14;24.10;;;9.60;;
42066;SDS011;27734;47.028;28.820;2023-01-30T03:40:45;22.67;;;9.70;;
42066;SDS011;27734;47.028;28.820;2023-01-30T03:43:17;23.30;;;10.00;;
42066;SDS011;27734;47.028;28.820;2023-01-30T03:45:48;23.97;;;9.73;;
42066;SDS011;27734;47.028;28.820;2023-01-30T03:48:19;24.47;;;9.63;;
42066;SDS011;27734;47.028;28.820;2023-01-30T03:50:51;20.93;;;9.80;;
42066;SDS011;27734;47.028;28.820;2023-01-30T03:53:23;25.17;;;10.33;;
42066;SDS011;27734;47.028;28.820;2023-01-30T03:55:54;27.53;;;10.93;;
42066;SDS011;27734;47.028;28.820;2023-01-30T03:58:28;25.08;;;10.25;;
42066;SDS011;27734;47.028;28.820;2023-01-30T04:01:00;25.83;;;11.23;;
42066;SDS011;27734;47.028;28.820;2023-01-30T04:03:33;26.30;;;11.13;;
42066;SDS011;27734;47.028;28.820;2023-01-30T04:06:06;27.93;;;11.65;;
42066;SDS011;27734;47.028;28.820;2023-01-30T04:08:37;25.60;;;11.20;;
42066;SDS011;27734;47.028;28.820;2023-01-30T04:11:09;28.30;;;11.40;;
42066;SDS011;27734;47.028;28.820;2023-01-30T04:13:40;26.03;;;11.40;;
42066;SDS011;27734;47.028;28.820;2023-01-30T04:16:16;27.63;;;11.70;;
42066;SDS011;27734;47.028;28.820;2023-01-30T04:21:36;30.10;;;11.90;;
42066;SDS011;27734;47.028;28.820;2023-01-30T04:24:08;29.90;;;12.17;;
42066;SDS011;27734;47.028;28.820;2023-01-30T04:26:39;30.30;;;12.20;;
42066;SDS011;27734;47.028;28.820;2023-01-30T04:29:11;29.90;;;12.93;;
42066;SDS011;27734;47.028;28.820;2023-01-30T04:31:42;28.43;;;12.00;;
42066;SDS011;27734;47.028;28.820;2023-01-30T04:34:23;28.57;;;12.00;;
42066;SDS011;27734;47.028;28.820;2023-01-30T04:36:54;30.60;;;12.10;;
42066;SDS011;27734;47.028;28.820;2023-01-30T04:39:26;30.93;;;12.03;;
42066;SDS011;27734;47.028;28.820;2023-01-30T04:41:58;30.83;;;13.60;;
42066;SDS011;27734;47.028;28.820;2023-01-30T04:44:30;28.23;;;11.87;;
42066;SDS011;27734;47.028;28.820;2023-01-30T04:47:09;26.77;;;11.83;;
42066;SDS011;27734;47.028;28.820;2023-01-30T04:49:40;26.70;;;11.20;;
42066;SDS011;27734;47.028;28.820;2023-01-30T04:52:13;23.80;;;10.95;;
42066;SDS011;27734;47.028;28.820;2023-01-30T04:54:44;26.63;;;11.93;;
42066;SDS011;27734;47.028;28.820;2023-01-30T04:57:16;26.83;;;11.47;;
42066;SDS011;27734;47.028;28.820;2023-01-30T04:59:47;25.87;;;11.27;;
42066;SDS011;27734;47.028;28.820;2023-01-30T05:02:19;28.77;;;10.60;;
42066;SDS011;27734;47.028;28.820;2023-01-30T05:04:50;25.90;;;10.50;;
42066;SDS011;27734;47.028;28.820;2023-01-30T05:07:22;26.73;;;11.13;;
42066;SDS011;27734;47.028;28.820;2023-01-30T05:09:53;24.13;;;10.40;;
42066;SDS011;27734;47.028;28.820;2023-01-30T05:12:24;28.10;;;10.90;;
42066;SDS011;27734;47.028;28.820;2023-01-30T05:14:56;26.70;;;11.03;;
42066;SDS011;27734;47.028;28.820;2023-01-30T05:17:27;28.53;;;10.77;;
42066;SDS011;27734;47.028;28.820;2023-01-30T05:19:58;29.30;;;10.63;;
42066;SDS011;27734;47.028;28.820;2023-01-30T05:22:29;26.50;;;10.90;;
42066;SDS011;27734;47.028;28.820;2023-01-30T05:25:01;23.50;;;9.80;;
42066;SDS011;27734;47.028;28.820;2023-01-30T05:27:32;27.37;;;11.13;;
42066;SDS011;27734;47.028;28.820;2023-01-30T05:30:04;29.27;;;11.17;;
42066;SDS011;27734;47.028;28.820;2023-01-30T05:32:37;26.90;;;11.33;;
42066;SDS011;27734;47.028;28.820;2023-01-30T05:35:08;27.57;;;11.77;;
42066;SDS011;27734;47.028;28.820;2023-01-30T05:37:40;24.23;;;10.70;;
42066;SDS011;27734;47.028;28.820;2023-01-30T05:40:12;24.70;;;10.97;;
42066;SDS011;27734;47.028;28.820;2023-01-30T05:42:44;27.20;;;11.20;;
42066;SDS011;27734;47.028;28.820;2023-01-30T05:45:15;26.37;;;11.23;;
42066;SDS011;27734;47.028;28.820;2023-01-30T05:47:50;26.43;;;10.87;;
42066;SDS011;27734;47.028;28.820;2023-01-30T05:50:21;27.87;;;11.33;;
42066;SDS011;27734;47.028;28.820;2023-01-30T05:52:53;24.87;;;11.27;;
42066;SDS011;27734;47.028;28.820;2023-01-30T05:55:25;27.13;;;11.17;;
42066;SDS011;27734;47.028;28.820;2023-01-30T05:57:57;27.23;;;11.63;;
42066;SDS011;27734;47.028;28.820;2023-01-30T06:00:29;28.47;;;11.17;;
42066;SDS011;27734;47.028;28.820;2023-01-30T06:03:00;24.47;;;10.30;;
42066;SDS011;27734;47.028;28.820;2023-01-30T06:05:31;27.03;;;11.27;;
42066;SDS011;27734;47.028;28.820;2023-01-30T06:08:05;26.12;;;11.28;;
42066;SDS011;27734;47.028;28.820;2023-01-30T06:10:37;26.60;;;10.80;;
42066;SDS011;27734;47.028;28.820;2023-01-30T06:13:08;25.03;;;10.07;;
42066;SDS011;27734;47.028;28.820;2023-01-30T06:15:40;25.40;;;10.33;;
42066;SDS011;27734;47.028;28.820;2023-01-30T06:18:11;24.33;;;10.97;;
42066;SDS011;27734;47.028;28.820;2023-01-30T06:20:46;28.63;;;11.47;;
42066;SDS011;27734;47.028;28.820;2023-01-30T06:23:18;29.10;;;11.63;;
42066;SDS011;27734;47.028;28.820;2023-01-30T06:25:51;30.17;;;11.57;;
42066;SDS011;27734;47.028;28.820;2023-01-30T06:28:23;27.73;;;11.90;;
42066;SDS011;27734;47.028;28.820;2023-01-30T06:30:54;28.97;;;11.50;;
42066;SDS011;27734;47.028;28.820;2023-01-30T06:33:26;29.73;;;11.37;;
42066;SDS011;27734;47.028;28.820;2023-01-30T06:35:57;29.05;;;11.60;;
42066;SDS011;27734;47.028;28.820;2023-01-30T06:38:28;26.80;;;12.43;;
42066;SDS011;27734;47.028;28.820;2023-01-30T06:41:04;26.37;;;11.97;;
42066;SDS011;27734;47.028;28.820;2023-01-30T06:43:36;27.43;;;11.73;;
42066;SDS011;27734;47.028;28.820;2023-01-30T06:46:09;29.07;;;12.20;;
42066;SDS011;27734;47.028;28.820;2023-01-30T06:48:40;26.97;;;11.17;;
42066;SDS011;27734;47.028;28.820;2023-01-30T06:51:13;25.40;;;11.30;;
42066;SDS011;27734;47.028;28.820;2023-01-30T06:53:44;27.93;;;12.37;;
42066;SDS011;27734;47.028;28.820;2023-01-30T06:56:17;28.70;;;11.25;;
42066;SDS011;27734;47.028;28.820;2023-01-30T06:58:48;25.20;;;10.60;;
42066;SDS011;27734;47.028;28.820;2023-01-30T07:01:20;23.03;;;9.93;;
42066;SDS011;27734;47.028;28.820;2023-01-30T07:03:51;24.00;;;9.90;;
42066;SDS011;27734;47.028;28.820;2023-01-30T07:06:23;23.47;;;10.67;;
42066;SDS011;27734;47.028;28.820;2023-01-30T07:08:56;27.40;;;10.63;;
42066;SDS011;27734;47.028;28.820;2023-01-30T07:11:27;59.57;;;14.63;;
42066;SDS011;27734;47.028;28.820;2023-01-30T07:13:59;27.73;;;10.63;;
42066;SDS011;27734;47.028;28.820;2023-01-30T07:16:33;25.33;;;10.63;;
42066;SDS011;27734;47.028;28.820;2023-01-30T07:19:08;27.03;;;11.40;;
42066;SDS011;27734;47.028;28.820;2023-01-30T07:21:42;30.40;;;10.97;;
42066;SDS011;27734;47.028;28.820;2023-01-30T07:24:18;27.60;;;11.93;;
42066;SDS011;27734;47.028;28.820;2023-01-30T07:26:53;25.97;;;10.60;;
42066;SDS011;27734;47.028;28.820;2023-01-30T07:29:29;26.20;;;10.80;;
42066;SDS011;27734;47.028;28.820;2023-01-30T07:32:13;28.43;;;10.70;;
42066;SDS011;27734;47.028;28.820;2023-01-30T07:34:56;27.57;;;11.13;;
42066;SDS011;27734;47.028;28.820;2023-01-30T07:37:27;26.90;;;10.80;;
42066;SDS011;27734;47.028;28.820;2023-01-30T07:40:04;28.00;;;11.60;;
42066;SDS011;27734;47.028;28.820;2023-01-30T07:42:41;28.33;;;12.03;;
42066;SDS011;27734;47.028;28.820;2023-01-30T07:45:27;29.33;;;12.93;;
42066;SDS011;27734;47.028;28.820;2023-01-30T07:48:05;26.80;;;12.40;;
42066;SDS011;27734;47.028;28.820;2023-01-30T07:50:40;49.00;;;15.50;;
42066;SDS011;27734;47.028;28.820;2023-01-30T07:53:14;41.58;;;14.28;;
42066;SDS011;27734;47.028;28.820;2023-01-30T07:55:47;33.90;;;12.90;;
42066;SDS011;27734;47.028;28.820;2023-01-30T07:58:20;28.37;;;12.03;;
42066;SDS011;27734;47.028;28.820;2023-01-30T08:00:53;32.77;;;13.03;;
42066;SDS011;27734;47.028;28.820;2023-01-30T08:03:26;34.87;;;15.03;;
42066;SDS011;27734;47.028;28.820;2023-01-30T08:06:00;32.60;;;14.10;;
42066;SDS011;27734;47.028;28.820;2023-01-30T08:08:36;28.23;;;12.63;;
42066;SDS011;27734;47.028;28.820;2023-01-30T08:11:08;26.20;;;11.93;;
42066;SDS011;27734;47.028;28.820;2023-01-30T08:13:42;26.87;;;12.27;;
42066;SDS011;27734;47.028;28.820;2023-01-30T08:16:14;28.60;;;12.83;;
42066;SDS011;27734;47.028;28.820;2023-01-30T08:18:47;25.83;;;12.30;;
42066;SDS011;27734;47.028;28.820;2023-01-30T08:21:20;26.20;;;12.00;;
42066;SDS011;27734;47.028;28.820;2023-01-30T08:23:55;25.90;;;11.47;;
42066;SDS011;27734;47.028;28.820;2023-01-30T08:26:28;28.27;;;12.13;;
42066;SDS011;27734;47.028;28.820;2023-01-30T08:29:01;25.57;;;11.07;;
42066;SDS011;27734;47.028;28.820;2023-01-30T08:34:05;24.80;;;11.80;;
42066;SDS011;27734;47.028;28.820;2023-01-30T08:36:40;27.60;;;12.05;;
42066;SDS011;27734;47.028;28.820;2023-01-30T08:39:17;25.90;;;11.50;;
42066;SDS011;27734;47.028;28.820;2023-01-30T08:41:53;28.47;;;11.37;;
42066;SDS011;27734;47.028;28.820;2023-01-30T08:44:25;26.33;;;10.63;;
42066;SDS011;27734;47.028;28.820;2023-01-30T08:47:00;22.63;;;9.30;;
42066;SDS011;27734;47.028;28.820;2023-01-30T08:49:35;26.70;;;10.17;;
42066;SDS011;27734;47.028;28.820;2023-01-30T08:52:27;24.73;;;10.23;;
42066;SDS011;27734;47.028;28.820;2023-01-30T08:55:10;22.20;;;9.57;;
42066;SDS011;27734;47.028;28.820;2023-01-30T08:57:42;22.20;;;9.50;;
42066;SDS011;27734;47.028;28.820;2023-01-30T09:00:16;22.20;;;9.80;;
42066;SDS011;27734;47.028;28.820;2023-01-30T09:02:56;27.53;;;10.17;;
42066;SDS011;27734;47.028;28.820;2023-01-30T09:05:31;23.77;;;10.80;;
42066;SDS011;27734;47.028;28.820;2023-01-30T09:08:02;26.80;;;10.80;;
42066;SDS011;27734;47.028;28.820;2023-01-30T09:13:09;28.05;;;11.10;;
42066;SDS011;27734;47.028;28.820;2023-01-30T09:15:43;25.00;;;11.15;;
42066;SDS011;27734;47.028;28.820;2023-01-30T09:18:17;27.90;;;12.43;;
42066;SDS011;27734;47.028;28.820;2023-01-30T09:20:49;27.87;;;12.13;;
42066;SDS011;27734;47.028;28.820;2023-01-30T09:23:28;27.43;;;12.17;;
42066;SDS011;27734;47.028;28.820;2023-01-30T09:26:01;25.82;;;12.40;;
42066;SDS011;27734;47.028;28.820;2023-01-30T09:28:35;29.57;;;12.55;;
42066;SDS011;27734;47.028;28.820;2023-01-30T09:31:13;26.03;;;11.80;;
42066;SDS011;27734;47.028;28.820;2023-01-30T09:33:47;26.00;;;11.73;;
42066;SDS011;27734;47.028;28.820;2023-01-30T09:36:34;33.00;;;12.57;;
42066;SDS011;27734;47.028;28.820;2023-01-30T09:39:08;28.97;;;12.70;;
42066;SDS011;27734;47.028;28.820;2023-01-30T09:41:49;56.48;;;16.48;;
42066;SDS011;27734;47.028;28.820;2023-01-30T09:44:44;32.90;;;13.87;;
42066;SDS011;27734;47.028;28.820;2023-01-30T09:47:59;29.37;;;13.20;;
42066;SDS011;27734;47.028;28.820;2023-01-30T09:50:46;25.50;;;10.90;;
42066;SDS011;27734;47.028;28.820;2023-01-30T09:53:40;24.77;;;11.43;;
42066;SDS011;27734;47.028;28.820;2023-01-30T09:56:25;24.63;;;11.07;;
42066;SDS011;27734;47.028;28.820;2023-01-30T09:58:59;26.37;;;11.30;;
42066;SDS011;27734;47.028;28.820;2023-01-30T10:01:38;29.23;;;12.53;;
42066;SDS011;27734;47.028;28.820;2023-01-30T10:04:22;28.42;;;12.50;;
42066;SDS011;27734;47.028;28.820;2023-01-30T10:07:03;27.73;;;12.17;;
42066;SDS011;27734;47.028;28.820;2023-01-30T10:09:46;25.05;;;11.55;;
42066;SDS011;27734;47.028;28.820;2023-01-30T10:15:10;24.37;;;10.90;;
42066;SDS011;27734;47.028;28.820;2023-01-30T10:18:06;24.93;;;11.13;;
42066;SDS011;27734;47.028;28.820;2023-01-30T10:20:49;24.70;;;11.20;;
42066;SDS011;27734;47.028;28.820;2023-01-30T10:23:32;26.30;;;12.07;;
42066;SDS011;27734;47.028;28.820;2023-01-30T10:26:18;27.27;;;12.13;;
42066;SDS011;27734;47.028;28.820;2023-01-30T10:28:54;28.90;;;11.37;;
42066;SDS011;27734;47.028;28.820;2023-01-30T10:31:33;26.73;;;11.63;;
42066;SDS011;27734;47.028;28.820;2023-01-30T10:34:19;27.00;;;11.50;;
42066;SDS011;27734;47.028;28.820;2023-01-30T10:36:55;25.17;;;10.50;;
42066;SDS011;27734;47.028;28.820;2023-01-30T10:39:37;24.13;;;10.17;;
42066;SDS011;27734;47.028;28.820;2023-01-30T10:42:17;22.97;;;10.57;;
42066;SDS011;27734;47.028;28.820;2023-01-30T10:44:59;23.67;;;10.67;;
42066;SDS011;27734;47.028;28.820;2023-01-30T10:47:52;23.07;;;10.07;;
42066;SDS011;27734;47.028;28.820;2023-01-30T10:50:40;23.53;;;9.63;;
42066;SDS011;27734;47.028;28.820;2023-01-30T10:53:19;25.37;;;9.80;;
42066;SDS011;27734;47.028;28.820;2023-01-30T10:56:01;21.27;;;8.83;;
42066;SDS011;27734;47.028;28.820;2023-01-30T10:58:41;25.10;;;11.37;;
42066;SDS011;27734;47.028;28.820;2023-01-30T11:01:22;24.63;;;11.03;;
42066;SDS011;27734;47.028;28.820;2023-01-30T11:04:03;22.73;;;10.83;;
42066;SDS011;27734;47.028;28.820;2023-01-30T11:06:43;25.27;;;10.57;;
42066;SDS011;27734;47.028;28.820;2023-01-30T11:09:16;24.33;;;10.13;;
42066;SDS011;27734;47.028;28.820;2023-01-30T11:11:48;20.93;;;9.17;;
42066;SDS011;27734;47.028;28.820;2023-01-30T11:14:25;24.67;;;10.43;;
42066;SDS011;27734;47.028;28.820;2023-01-30T11:16:56;24.73;;;9.40;;
42066;SDS011;27734;47.028;28.820;2023-01-30T11:19:31;21.27;;;9.30;;
42066;SDS011;27734;47.028;28.820;2023-01-30T11:22:04;21.17;;;9.33;;
42066;SDS011;27734;47.028;28.820;2023-01-30T11:24:42;21.50;;;9.10;;
42066;SDS011;27734;47.028;28.820;2023-01-30T11:27:17;33.20;;;11.10;;
42066;SDS011;27734;47.028;28.820;2023-01-30T11:29:54;24.27;;;9.20;;
42066;SDS011;27734;47.028;28.820;2023-01-30T11:32:35;24.90;;;9.77;;
42066;SDS011;27734;47.028;28.820;2023-01-30T11:35:18;26.03;;;9.63;;
42066;SDS011;27734;47.028;28.820;2023-01-30T11:38:09;21.83;;;9.43;;
42066;SDS011;27734;47.028;28.820;2023-01-30T11:40:50;21.80;;;9.63;;
42066;SDS011;27734;47.028;28.820;2023-01-30T11:43:37;23.97;;;9.47;;
42066;SDS011;27734;47.028;28.820;2023-01-30T11:46:10;22.57;;;9.73;;
42066;SDS011;27734;47.028;28.820;2023-01-30T11:48:48;24.60;;;10.33;;
42066;SDS011;27734;47.028;28.820;2023-01-30T11:51:24;24.03;;;9.27;;
42066;SDS011;27734;47.028;28.820;2023-01-30T11:54:01;22.90;;;10.57;;
42066;SDS011;27734;47.028;28.820;2023-01-30T11:56:41;21.87;;;9.40;;
42066;SDS011;27734;47.028;28.820;2023-01-30T12:02:03;42.20;;;13.60;;
42066;SDS011;27734;47.028;28.820;2023-01-30T12:07:28;30.10;;;11.00;;
42066;SDS011;27734;47.028;28.820;2023-01-30T12:10:16;33.33;;;10.70;;
42066;SDS011;27734;47.028;28.820;2023-01-30T12:13:08;23.40;;;10.13;;
42066;SDS011;27734;47.028;28.820;2023-01-30T12:15:50;24.90;;;10.30;;
42066;SDS011;27734;47.028;28.820;2023-01-30T12:18:31;27.00;;;12.17;;
42066;SDS011;27734;47.028;28.820;2023-01-30T12:21:14;55.60;;;13.47;;
42066;SDS011;27734;47.028;28.820;2023-01-30T12:24:07;28.17;;;13.57;;
42066;SDS011;27734;47.028;28.820;2023-01-30T12:27:18;36.83;;;12.37;;
42066;SDS011;27734;47.028;28.820;2023-01-30T12:29:57;33.07;;;11.30;;
42066;SDS011;27734;47.028;28.820;2023-01-30T12:32:33;25.73;;;9.43;;
42066;SDS011;27734;47.028;28.820;2023-01-30T12:35:13;22.97;;;9.20;;
42066;SDS011;27734;47.028;28.820;2023-01-30T12:37:50;24.87;;;10.73;;
42066;SDS011;27734;47.028;28.820;2023-01-30T12:40:38;26.05;;;10.50;;
42066;SDS011;27734;47.028;28.820;2023-01-30T12:43:27;24.47;;;10.40;;
42066;SDS011;27734;47.028;28.820;2023-01-30T12:46:11;26.73;;;10.87;;
42066;SDS011;27734;47.028;28.820;2023-01-30T12:48:59;30.30;;;11.07;;
42066;SDS011;27734;47.028;28.820;2023-01-30T12:51:51;29.07;;;10.97;;
42066;SDS011;27734;47.028;28.820;2023-01-30T12:54:42;27.83;;;10.57;;
42066;SDS011;27734;47.028;28.820;2023-01-30T12:57:25;25.62;;;11.00;;
42066;SDS011;27734;47.028;28.820;2023-01-30T13:00:19;31.90;;;11.00;;
42066;SDS011;27734;47.028;28.820;2023-01-30T13:03:05;29.73;;;11.63;;
42066;SDS011;27734;47.028;28.820;2023-01-30T13:05:50;33.27;;;11.60;;
42066;SDS011;27734;47.028;28.820;2023-01-30T13:08:38;26.17;;;11.33;;
42066;SDS011;27734;47.028;28.820;2023-01-30T13:11:39;25.70;;;10.80;;
42066;SDS011;27734;47.028;28.820;2023-01-30T13:14:20;27.67;;;10.20;;
42066;SDS011;27734;47.028;28.820;2023-01-30T13:17:04;139.37;;;24.43;;
42066;SDS011;27734;47.028;28.820;2023-01-30T13:19:50;53.67;;;14.63;;
42066;SDS011;27734;47.028;28.820;2023-01-30T13:22:28;48.37;;;14.77;;
42066;SDS011;27734;47.028;28.820;2023-01-30T13:25:08;33.53;;;13.20;;
42066;SDS011;27734;47.028;28.820;2023-01-30T13:27:51;24.47;;;10.60;;
42066;SDS011;27734;47.028;28.820;2023-01-30T13:30:27;29.10;;;11.87;;
42066;SDS011;27734;47.028;28.820;2023-01-30T13:33:05;29.17;;;12.13;;
42066;SDS011;27734;47.028;28.820;2023-01-30T13:35:42;27.77;;;11.40;;
42066;SDS011;27734;47.028;28.820;2023-01-30T13:38:22;24.73;;;10.33;;
42066;SDS011;27734;47.028;28.820;2023-01-30T13:41:01;25.93;;;10.70;;
42066;SDS011;27734;47.028;28.820;2023-01-30T13:43:41;32.33;;;12.37;;
42066;SDS011;27734;47.028;28.820;2023-01-30T13:46:21;27.73;;;11.37;;
42066;SDS011;27734;47.028;28.820;2023-01-30T13:49:02;30.67;;;11.30;;
42066;SDS011;27734;47.028;28.820;2023-01-30T13:51:47;105.73;;;19.73;;
42066;SDS011;27734;47.028;28.820;2023-01-30T13:57:23;43.93;;;13.67;;
42066;SDS011;27734;47.028;28.820;2023-01-30T14:00:17;42.30;;;11.70;;
42066;SDS011;27734;47.028;28.820;2023-01-30T14:06:01;30.70;;;12.00;;
42066;SDS011;27734;47.028;28.820;2023-01-30T14:11:41;27.97;;;11.50;;
42066;SDS011;27734;47.028;28.820;2023-01-30T14:17:12;26.73;;;11.10;;
42066;SDS011;27734;47.028;28.820;2023-01-30T14:19:58;30.00;;;11.83;;
42066;SDS011;27734;47.028;28.820;2023-01-30T14:22:49;32.33;;;12.40;;
42066;SDS011;27734;47.028;28.820;2023-01-30T14:40:46;32.57;;;12.00;;
42066;SDS011;27734;47.028;28.820;2023-01-30T14:43:43;32.70;;;13.57;;
42066;SDS011;27734;47.028;28.820;2023-01-30T14:49:33;39.50;;;13.90;;
42066;SDS011;27734;47.028;28.820;2023-01-30T14:52:16;30.20;;;11.17;;
42066;SDS011;27734;47.028;28.820;2023-01-30T14:54:59;40.40;;;14.27;;
42066;SDS011;27734;47.028;28.820;2023-01-30T14:57:32;31.90;;;12.13;;
42066;SDS011;27734;47.028;28.820;2023-01-30T15:00:05;44.53;;;13.17;;
42066;SDS011;27734;47.028;28.820;2023-01-30T15:02:53;31.60;;;13.03;;
42066;SDS011;27734;47.028;28.820;2023-01-30T15:05:29;31.80;;;12.93;;
42066;SDS011;27734;47.028;28.820;2023-01-30T15:08:05;32.23;;;13.87;;
42066;SDS011;27734;47.028;28.820;2023-01-30T15:10:44;33.97;;;14.33;;
42066;SDS011;27734;47.028;28.820;2023-01-30T15:13:41;33.50;;;14.03;;
42066;SDS011;27734;47.028;28.820;2023-01-30T15:16:35;31.82;;;14.65;;
42066;SDS011;27734;47.028;28.820;2023-01-30T15:19:31;32.37;;;14.03;;
42066;SDS011;27734;47.028;28.820;2023-01-30T15:22:18;35.60;;;14.67;;
42066;SDS011;27734;47.028;28.820;2023-01-30T15:25:06;30.20;;;13.23;;
42066;SDS011;27734;47.028;28.820;2023-01-30T15:27:52;31.77;;;13.77;;
42066;SDS011;27734;47.028;28.820;2023-01-30T15:30:34;30.87;;;14.27;;
42066;SDS011;27734;47.028;28.820;2023-01-30T15:33:24;31.97;;;13.63;;
42066;SDS011;27734;47.028;28.820;2023-01-30T15:35:56;34.33;;;13.37;;
42066;SDS011;27734;47.028;28.820;2023-01-30T15:38:29;32.77;;;13.40;;
42066;SDS011;27734;47.028;28.820;2023-01-30T15:41:02;32.30;;;13.93;;
42066;SDS011;27734;47.028;28.820;2023-01-30T15:43:41;36.10;;;15.57;;
42066;SDS011;27734;47.028;28.820;2023-01-30T15:46:33;32.77;;;14.60;;
42066;SDS011;27734;47.028;28.820;2023-01-30T15:49:18;42.33;;;16.03;;
42066;SDS011;27734;47.028;28.820;2023-01-30T15:52:03;37.17;;;14.93;;
42066;SDS011;27734;47.028;28.820;2023-01-30T15:54:47;34.73;;;14.27;;
42066;SDS011;27734;47.028;28.820;2023-01-30T15:57:21;39.13;;;16.80;;
42066;SDS011;27734;47.028;28.820;2023-01-30T15:59:57;38.80;;;17.23;;